Airfield :
LOGIN :

Register | Disclaimer

   EN    FR    IT 

 










Legend :    VFR   Marginal VFR   IFR   Intensive IFR   Very Intensive IFR
Visi :
Ceiling :
>= 8 km
>= 3000ft
5 to 8 km
1000 to 3000 ft
1500m to 5 km
500 to 1000 ft
800 to 1500m
200 to 500 ft
< 800m
< 200 ft
Symbols :   Thunderstorms  Fog  Heavy snow  Heavy precipitations  Wind > 20 kt
SIGMETs :     Misc.  Thunderstorms  Icing  Turbulence  Mountain Waves  Volcanic Ashes






- Airport Elevation : 326 ft
- IATA code : LCG


LECO - A Coruna

CURRENT METAR :
  • 172030Z 00000KT 9999 FEW014 OVC028 11/11 Q1030 TEMPO 3000 BR

EXPIRED METARs :
  • 172000Z VRB01KT 9999 FEW010 OVC024 12/12 Q1030 TEMPO 3000 BR
  • 171930Z 00000KT 9999 FEW010 OVC024 12/12 Q1030 TEMPO 3000 BR
  • 171900Z VRB02KT 9999 SCT011 OVC028 12/12 Q1031 TEMPO 3000 BR
  • 171830Z VRB01KT 9999 FEW010 BKN024 12/12 Q1031 TEMPO 3000 BR
  • 171800Z VRB01KT 9999 FEW010 BKN024 12/11 Q1030 TEMPO 3000 BR

TAF TAF LECO
Valid from the 17 at 21:00 until the 18 at 21:00 UTC


172000Z 1721/1821 14004KT 9999 SCT010 BKN025 TX14/1815Z TN06/1808Z
TEMPO 1721/1809 3000 BR
PROB40
TEMPO 1802/1808 0350 FG VV001



MET'MAP, your aeronautical weather chart ! - Copyright ORBIFLY December 2007 - Disclaimer

ORBIFLY MET'MAP TEAM :

Programming & Development : Alexandra Zaïnal
Concept & original design : Baudouin d'Aumeries
Assistance for programming : Marc-Olivier Méhu
Technical & hardware support : Manuel Goepfert

Contact : metmap@orbifly.com




SOURCES & CREDITS :

   NOAA